createdAt,value
2018-09-10T00:00:11.950Z,0.00
2018-09-10T00:01:11.923Z,0.00
2018-09-10T00:02:11.906Z,0.00
2018-09-10T00:03:11.977Z,0.00
2018-09-10T00:04:11.924Z,0.00
2018-09-10T00:05:11.869Z,0.00
2018-09-10T00:06:11.863Z,0.00
2018-09-10T00:07:11.867Z,0.00
2018-09-10T00:08:11.841Z,0.00
2018-09-10T00:09:11.834Z,0.00
2018-09-10T00:10:11.846Z,0.00
2018-09-10T00:11:11.816Z,0.00
2018-09-10T00:12:11.788Z,0.00
2018-09-10T00:13:11.786Z,0.00
2018-09-10T00:14:11.777Z,0.00
2018-09-10T00:15:11.767Z,0.00
2018-09-10T00:16:11.783Z,0.00
2018-09-10T00:17:19.691Z,0.00
2018-09-10T00:18:19.653Z,0.00
2018-09-10T00:19:19.582Z,0.00
2018-09-10T00:20:19.564Z,0.00
2018-09-10T00:21:21.161Z,0.00
2018-09-10T00:22:19.543Z,0.00
2018-09-10T00:23:19.561Z,0.00
2018-09-10T00:24:19.485Z,0.00
2018-09-10T00:25:11.643Z,0.00
2018-09-10T00:26:11.633Z,0.00
2018-09-10T00:27:11.659Z,0.00
2018-09-10T00:28:11.622Z,0.00
2018-09-10T00:29:11.619Z,0.00
2018-09-10T00:30:11.596Z,0.00
2018-09-10T00:31:11.585Z,0.00
2018-09-10T00:32:11.576Z,0.00
2018-09-10T00:33:11.655Z,0.00
2018-09-10T00:34:11.561Z,0.00
2018-09-10T00:35:11.552Z,0.00
2018-09-10T00:36:11.548Z,0.00
2018-09-10T00:37:11.525Z,0.00
2018-09-10T00:38:11.510Z,0.00
2018-09-10T00:39:11.536Z,0.00
2018-09-10T00:40:11.486Z,0.00
2018-09-10T00:41:11.493Z,0.00
2018-09-10T00:42:11.473Z,0.00
2018-09-10T00:43:11.456Z,0.00
2018-09-10T00:44:11.436Z,0.00
2018-09-10T00:45:11.473Z,0.00
2018-09-10T00:46:11.432Z,0.00
2018-09-10T00:47:11.408Z,0.00
2018-09-10T00:48:11.410Z,0.00
2018-09-10T00:49:11.377Z,0.00
2018-09-10T00:50:11.388Z,0.00
2018-09-10T00:51:11.400Z,0.00
2018-09-10T00:52:11.368Z,0.00
2018-09-10T00:53:11.352Z,0.00
2018-09-10T00:54:11.338Z,0.00
2018-09-10T00:55:11.325Z,0.00
2018-09-10T00:56:11.317Z,0.00
2018-09-10T00:57:11.325Z,0.00
2018-09-10T00:58:11.283Z,0.00
2018-09-10T00:59:11.273Z,0.00
2018-09-10T01:00:11.276Z,0.00
2018-09-10T01:01:11.248Z,0.00
2018-09-10T01:02:11.239Z,0.00
2018-09-10T01:03:11.257Z,0.00
2018-09-10T01:04:11.225Z,0.00
2018-09-10T01:05:11.202Z,0.00
2018-09-10T01:06:11.207Z,0.00
2018-09-10T01:07:11.184Z,0.00
2018-09-10T01:08:11.183Z,0.00
2018-09-10T01:09:11.194Z,0.00
2018-09-10T01:10:11.155Z,0.00
2018-09-10T01:11:11.151Z,0.00
2018-09-10T01:12:11.140Z,0.00
2018-09-10T01:13:11.126Z,0.00
2018-09-10T01:14:11.106Z,0.00
2018-09-10T01:15:11.124Z,0.00
2018-09-10T01:16:11.080Z,0.00
2018-09-10T01:17:11.074Z,0.00
2018-09-10T01:18:11.068Z,0.00
2018-09-10T01:19:11.071Z,0.00
2018-09-10T01:20:11.044Z,0.00
2018-09-10T01:21:11.068Z,0.00
2018-09-10T01:22:11.019Z,0.00
2018-09-10T01:23:11.008Z,0.00
2018-09-10T01:24:10.994Z,0.00
2018-09-10T01:25:10.990Z,0.00
2018-09-10T01:26:10.991Z,0.00
2018-09-10T01:27:11.007Z,0.00
2018-09-10T01:28:10.965Z,0.00
2018-09-10T01:29:10.939Z,0.00
2018-09-10T01:30:10.941Z,0.00
2018-09-10T01:31:10.919Z,0.00
2018-09-10T01:32:10.918Z,0.00
2018-09-10T01:33:10.931Z,0.00
2018-09-10T01:34:10.897Z,0.00
2018-09-10T01:35:10.870Z,0.00
2018-09-10T01:36:10.859Z,0.00
2018-09-10T01:37:10.857Z,0.00
2018-09-10T01:38:10.838Z,0.00
2018-09-10T01:39:10.866Z,0.00
2018-09-10T01:40:10.846Z,0.00
2018-09-10T01:41:10.804Z,0.00
2018-09-10T01:42:10.816Z,0.00
2018-09-10T01:43:10.783Z,0.00
2018-09-10T01:44:10.770Z,0.00
2018-09-10T01:45:10.800Z,0.00
2018-09-10T01:46:10.751Z,0.00
2018-09-10T01:47:10.739Z,0.00
2018-09-10T01:48:10.743Z,0.00
2018-09-10T01:49:10.723Z,0.00
2018-09-10T01:50:10.728Z,0.00
2018-09-10T01:51:10.729Z,0.00
2018-09-10T01:52:10.702Z,0.00
2018-09-10T01:53:10.677Z,0.00
2018-09-10T01:54:10.671Z,0.00
2018-09-10T01:55:10.654Z,0.00
2018-09-10T01:56:10.646Z,0.00
2018-09-10T01:57:10.659Z,0.00
2018-09-10T01:58:10.629Z,0.00
2018-09-10T01:59:10.645Z,0.00
2018-09-10T02:00:10.624Z,0.00
2018-09-10T02:01:10.588Z,0.00
2018-09-10T02:02:10.580Z,0.00
2018-09-10T02:03:10.607Z,0.00
2018-09-10T02:04:10.560Z,0.00
2018-09-10T02:05:10.541Z,0.00
2018-09-10T02:06:10.529Z,0.00
2018-09-10T02:07:10.583Z,0.00
2018-09-10T02:08:10.521Z,0.00
2018-09-10T02:09:10.532Z,0.00
2018-09-10T02:10:10.491Z,0.00
2018-09-10T02:11:10.475Z,0.00
2018-09-10T02:12:10.466Z,0.00
2018-09-10T02:13:10.459Z,0.00
2018-09-10T02:14:10.454Z,0.00
2018-09-10T02:15:10.485Z,0.00
2018-09-10T02:16:10.428Z,0.00
2018-09-10T02:17:10.505Z,0.00
2018-09-10T02:18:10.398Z,0.00
2018-09-10T02:19:10.402Z,0.00
2018-09-10T02:20:10.417Z,0.00
2018-09-10T02:21:10.416Z,0.00
2018-09-10T02:22:10.357Z,0.00
2018-09-10T02:23:10.365Z,0.00
2018-09-10T02:24:10.335Z,0.00
2018-09-10T02:25:10.323Z,0.00
2018-09-10T02:26:10.317Z,0.00
2018-09-10T02:27:10.344Z,0.00
2018-09-10T02:28:10.285Z,0.00
2018-09-10T02:29:10.317Z,0.00
2018-09-10T02:30:10.268Z,0.00
2018-09-10T02:31:10.280Z,0.00
2018-09-10T02:32:10.243Z,0.00
2018-09-10T02:33:10.268Z,0.00
2018-09-10T02:34:10.244Z,0.00
2018-09-10T02:35:10.221Z,0.00
2018-09-10T02:36:10.204Z,0.00
2018-09-10T02:37:10.193Z,0.00
2018-09-10T02:38:10.184Z,0.00
2018-09-10T02:39:10.222Z,0.00
2018-09-10T02:40:10.175Z,0.00
2018-09-10T02:41:10.166Z,0.00
2018-09-10T02:42:10.143Z,0.00
2018-09-10T02:43:10.138Z,0.00
2018-09-10T02:44:10.139Z,0.00
2018-09-10T02:45:10.132Z,0.00
2018-09-10T02:46:10.106Z,0.00
2018-09-10T02:47:10.084Z,0.00
2018-09-10T02:48:10.092Z,0.00
2018-09-10T02:49:10.073Z,0.00
2018-09-10T02:50:10.061Z,0.00
2018-09-10T02:51:10.075Z,0.00
2018-09-10T02:52:10.028Z,0.00
2018-09-10T02:53:10.021Z,0.00
2018-09-10T02:54:10.018Z,0.00
2018-09-10T02:55:10.070Z,0.00
2018-09-10T02:56:09.991Z,0.00
2018-09-10T02:57:10.023Z,0.00
2018-09-10T02:58:09.975Z,0.00
2018-09-10T02:59:09.968Z,0.00
2018-09-10T03:00:09.952Z,0.00
2018-09-10T03:01:10.272Z,0.00
2018-09-10T03:02:09.923Z,0.00
2018-09-10T03:03:09.932Z,0.00
2018-09-10T03:04:09.898Z,0.00
2018-09-10T03:05:09.921Z,0.00
2018-09-10T03:06:09.878Z,0.00
2018-09-10T03:07:09.858Z,0.00
2018-09-10T03:08:09.850Z,0.00
2018-09-10T03:09:09.885Z,0.00
2018-09-10T03:10:09.835Z,0.00
2018-09-10T03:11:09.830Z,0.00
2018-09-10T03:12:09.806Z,0.00
2018-09-10T03:13:09.799Z,0.00
2018-09-10T03:14:09.785Z,0.00
2018-09-10T03:15:09.831Z,0.00
2018-09-10T03:16:09.766Z,0.00
2018-09-10T03:17:09.748Z,0.00
2018-09-10T03:18:09.736Z,0.00
2018-09-10T03:19:09.720Z,0.00
2018-09-10T03:20:09.707Z,0.00
2018-09-10T03:21:09.742Z,0.00
2018-09-10T03:22:09.712Z,0.00
2018-09-10T03:23:09.679Z,0.00
2018-09-10T03:24:09.780Z,0.00
2018-09-10T03:25:09.650Z,0.00
2018-09-10T03:26:09.640Z,0.00
2018-09-10T03:27:09.660Z,0.00
2018-09-10T03:28:09.617Z,0.00
2018-09-10T03:29:09.608Z,0.00
2018-09-10T03:30:09.596Z,0.00
2018-09-10T03:31:09.614Z,0.00
2018-09-10T03:32:09.577Z,0.00
2018-09-10T03:33:09.600Z,0.00
2018-09-10T03:34:09.577Z,0.00
2018-09-10T03:35:09.539Z,0.00
2018-09-10T03:36:09.528Z,0.00
2018-09-10T03:37:09.522Z,0.00
2018-09-10T03:38:09.527Z,0.00
2018-09-10T03:39:09.533Z,0.00
2018-09-10T03:40:09.492Z,0.00
2018-09-10T03:41:09.472Z,0.00
2018-09-10T03:42:09.516Z,0.00
2018-09-10T03:43:09.450Z,0.00
2018-09-10T03:44:09.443Z,0.00
2018-09-10T03:45:09.558Z,0.00
2018-09-10T03:46:09.412Z,0.00
2018-09-10T03:47:09.408Z,0.00
2018-09-10T03:48:09.397Z,0.00
2018-09-10T03:49:09.395Z,0.00
2018-09-10T03:50:09.425Z,0.00
2018-09-10T03:51:09.399Z,0.00
2018-09-10T03:52:09.353Z,0.00
2018-09-10T03:53:09.337Z,0.00
2018-09-10T03:54:09.325Z,0.00
2018-09-10T03:55:09.314Z,0.00
2018-09-10T03:56:09.311Z,0.00
2018-09-10T03:57:09.359Z,0.00
2018-09-10T03:58:09.283Z,0.00
2018-09-10T03:59:09.270Z,0.00
2018-09-10T04:00:09.261Z,0.00
2018-09-10T04:01:09.247Z,0.00
2018-09-10T04:02:09.237Z,0.00
2018-09-10T04:03:09.277Z,0.00
2018-09-10T04:04:09.219Z,0.00
2018-09-10T04:05:09.283Z,0.00
2018-09-10T04:06:09.195Z,0.00
2018-09-10T04:07:09.181Z,0.00
2018-09-10T04:08:09.169Z,0.00
2018-09-10T04:09:09.198Z,0.00
2018-09-10T04:10:09.176Z,0.00
2018-09-10T04:11:09.144Z,0.00
2018-09-10T04:12:09.150Z,0.00
2018-09-10T04:13:09.113Z,0.00
2018-09-10T04:14:09.114Z,0.00
2018-09-10T04:15:09.122Z,0.00
2018-09-10T04:16:09.080Z,0.00
2018-09-10T04:17:09.149Z,0.00
2018-09-10T04:18:09.072Z,0.00
2018-09-10T04:19:09.163Z,0.00
2018-09-10T04:20:09.077Z,0.00
2018-09-10T04:21:09.062Z,0.00
2018-09-10T04:22:09.264Z,0.00
2018-09-10T04:23:09.013Z,0.00
2018-09-10T04:24:09.249Z,0.00
2018-09-10T04:25:09.041Z,0.00
2018-09-10T04:26:09.071Z,0.00
2018-09-10T04:27:09.018Z,0.00
2018-09-10T04:28:08.949Z,0.00
2018-09-10T04:29:08.966Z,0.00
2018-09-10T04:30:08.937Z,0.00
2018-09-10T04:31:08.914Z,0.00
2018-09-10T04:32:08.925Z,0.00
2018-09-10T04:33:09.867Z,0.00
2018-09-10T04:34:08.894Z,0.00
2018-09-10T04:35:08.874Z,0.00
2018-09-10T04:36:08.909Z,0.00
2018-09-10T04:37:08.844Z,0.00
2018-09-10T04:38:08.843Z,0.00
2018-09-10T04:39:08.872Z,0.00
2018-09-10T04:40:08.809Z,0.00
2018-09-10T04:41:08.829Z,0.00
2018-09-10T04:42:08.807Z,0.00
2018-09-10T04:43:08.801Z,0.00
2018-09-10T04:44:08.771Z,0.00
2018-09-10T04:45:08.803Z,0.00
2018-09-10T04:46:08.749Z,0.00
2018-09-10T04:47:08.737Z,0.00
2018-09-10T04:48:08.724Z,0.00
2018-09-10T04:49:08.715Z,0.00
2018-09-10T04:50:08.702Z,0.00
2018-09-10T04:51:08.725Z,0.00
2018-09-10T04:52:08.693Z,0.00
2018-09-10T04:53:08.677Z,0.00
2018-09-10T04:54:08.669Z,0.00
2018-09-10T04:55:08.679Z,0.00
2018-09-10T04:56:08.637Z,5.62
2018-09-10T04:57:08.652Z,5.62
2018-09-10T04:58:08.725Z,5.62
2018-09-10T04:59:08.612Z,5.62
2018-09-10T05:00:08.602Z,5.62
2018-09-10T05:01:08.582Z,5.62
2018-09-10T05:02:08.588Z,5.62
2018-09-10T05:03:08.598Z,5.62
2018-09-10T05:04:08.599Z,11.25
2018-09-10T05:05:08.546Z,11.25
2018-09-10T05:06:08.529Z,11.25
2018-09-10T05:07:08.528Z,11.25
2018-09-10T05:08:08.524Z,16.88
2018-09-10T05:09:08.517Z,16.88
2018-09-10T05:10:08.599Z,22.50
2018-09-10T05:11:08.484Z,22.50
2018-09-10T05:12:08.461Z,22.50
2018-09-10T05:13:08.446Z,22.50
2018-09-10T05:14:08.444Z,28.12
2018-09-10T05:15:08.463Z,28.12
2018-09-10T05:16:08.414Z,28.12
2018-09-10T05:17:08.399Z,28.12
2018-09-10T05:18:08.396Z,28.12
2018-09-10T05:19:08.392Z,28.12
2018-09-10T05:20:08.376Z,28.12
2018-09-10T05:21:08.402Z,33.75
2018-09-10T05:22:08.492Z,33.75
2018-09-10T05:23:08.338Z,33.75
2018-09-10T05:24:08.367Z,33.75
2018-09-10T05:25:08.318Z,39.38
2018-09-10T05:26:08.304Z,39.38
2018-09-10T05:27:08.352Z,45.00
2018-09-10T05:28:08.373Z,45.00
2018-09-10T05:29:08.267Z,50.62
2018-09-10T05:30:08.265Z,50.62
2018-09-10T05:31:08.245Z,56.25
2018-09-10T05:32:08.243Z,61.88
2018-09-10T05:33:08.262Z,61.88
2018-09-10T05:34:08.208Z,67.50
2018-09-10T05:35:08.197Z,73.12
2018-09-10T05:36:08.190Z,73.12
2018-09-10T05:37:08.175Z,73.12
2018-09-10T05:38:08.175Z,78.75
2018-09-10T05:39:08.243Z,84.38
2018-09-10T05:40:08.147Z,84.38
2018-09-10T05:41:08.140Z,90.00
2018-09-10T05:42:08.122Z,95.62
2018-09-10T05:43:08.115Z,95.62
2018-09-10T05:44:08.122Z,95.62
2018-09-10T05:45:08.141Z,90.00
2018-09-10T05:46:08.081Z,90.00
2018-09-10T05:47:08.073Z,90.00
2018-09-10T05:48:08.057Z,84.38
2018-09-10T05:49:08.045Z,84.38
2018-09-10T05:50:08.032Z,78.75
2018-09-10T05:51:08.065Z,84.38
2018-09-10T05:52:08.023Z,84.38
2018-09-10T05:53:08.039Z,90.00
2018-09-10T05:54:07.986Z,95.62
2018-09-10T05:55:07.977Z,101.25
2018-09-10T05:56:07.968Z,106.88
2018-09-10T05:57:07.991Z,112.50
2018-09-10T05:58:07.957Z,118.12
2018-09-10T05:59:07.933Z,118.12
2018-09-10T06:00:07.923Z,123.75
2018-09-10T06:01:07.917Z,123.75
2018-09-10T06:02:07.901Z,123.75
2018-09-10T06:03:07.917Z,123.75
2018-09-10T06:04:07.882Z,123.75
2018-09-10T06:05:07.907Z,123.75
2018-09-10T06:06:07.857Z,123.75
2018-09-10T06:07:07.837Z,129.38
2018-09-10T06:08:07.834Z,129.38
2018-09-10T06:09:07.857Z,129.38
2018-09-10T06:10:07.810Z,129.38
2018-09-10T06:11:07.805Z,135.00
2018-09-10T06:12:07.793Z,140.62
2018-09-10T06:13:07.774Z,146.25
2018-09-10T06:14:07.773Z,151.88
2018-09-10T06:15:07.795Z,151.88
2018-09-10T06:16:07.750Z,151.88
2018-09-10T06:17:07.742Z,146.25
2018-09-10T06:18:07.729Z,151.88
2018-09-10T06:19:07.704Z,151.88
2018-09-10T06:20:07.700Z,151.88
2018-09-10T06:21:07.755Z,157.50
2018-09-10T06:22:07.682Z,157.50
2018-09-10T06:23:07.665Z,163.12
2018-09-10T06:24:07.694Z,163.12
2018-09-10T06:25:07.648Z,168.75
2018-09-10T06:26:07.664Z,168.75
2018-09-10T06:27:07.669Z,174.38
2018-09-10T06:28:07.613Z,174.38
2018-09-10T06:29:07.635Z,174.38
2018-09-10T06:30:07.619Z,174.38
2018-09-10T06:31:07.578Z,174.38
2018-09-10T06:32:07.571Z,180.00
2018-09-10T06:33:07.604Z,180.00
2018-09-10T06:34:07.593Z,180.00
2018-09-10T06:35:07.545Z,180.00
2018-09-10T06:36:07.524Z,180.00
2018-09-10T06:37:07.595Z,185.62
2018-09-10T06:38:07.516Z,185.62
2018-09-10T06:39:07.531Z,191.25
2018-09-10T06:40:07.483Z,202.50
2018-09-10T06:41:07.472Z,208.12
2018-09-10T06:42:07.466Z,219.38
2018-09-10T06:43:07.460Z,225.00
2018-09-10T06:44:07.433Z,230.62
2018-09-10T06:45:07.571Z,236.25
2018-09-10T06:46:07.414Z,247.50
2018-09-10T06:47:07.408Z,247.50
2018-09-10T06:48:07.417Z,253.12
2018-09-10T06:49:07.378Z,264.38
2018-09-10T06:50:07.375Z,270.00
2018-09-10T06:51:07.404Z,275.62
2018-09-10T06:52:07.359Z,275.62
2018-09-10T06:53:07.337Z,281.25
2018-09-10T06:54:07.332Z,286.88
2018-09-10T06:55:07.310Z,292.50
2018-09-10T06:56:07.301Z,298.12
2018-09-10T06:57:07.326Z,298.12
2018-09-10T06:58:07.283Z,303.75
2018-09-10T06:59:07.266Z,309.38
2018-09-10T07:00:07.296Z,315.00
2018-09-10T07:01:07.251Z,320.62
2018-09-10T07:02:07.242Z,320.62
2018-09-10T07:03:07.255Z,320.62
2018-09-10T07:04:07.220Z,326.25
2018-09-10T07:05:07.206Z,326.25
2018-09-10T07:06:07.204Z,326.25
2018-09-10T07:07:07.190Z,337.50
2018-09-10T07:08:07.174Z,331.88
2018-09-10T07:09:07.212Z,337.50
2018-09-10T07:10:07.148Z,337.50
2018-09-10T07:11:07.145Z,348.75
2018-09-10T07:12:07.156Z,354.38
2018-09-10T07:13:07.196Z,360.00
2018-09-10T07:14:07.105Z,365.62
2018-09-10T07:15:07.136Z,371.25
2018-09-10T07:16:07.089Z,376.88
2018-09-10T07:17:07.078Z,388.12
2018-09-10T07:18:07.094Z,388.12
2018-09-10T07:19:07.154Z,393.75
2018-09-10T07:20:07.047Z,382.50
2018-09-10T07:21:07.056Z,382.50
2018-09-10T07:22:07.021Z,382.50
2018-09-10T07:23:07.014Z,382.50
2018-09-10T07:24:07.039Z,382.50
2018-09-10T07:25:06.986Z,382.50
2018-09-10T07:26:06.977Z,382.50
2018-09-10T07:27:07.033Z,382.50
2018-09-10T07:28:06.955Z,388.12
2018-09-10T07:29:06.944Z,382.50
2018-09-10T07:30:06.943Z,376.88
2018-09-10T07:31:06.963Z,371.25
2018-09-10T07:32:06.916Z,360.00
2018-09-10T07:33:06.929Z,354.38
2018-09-10T07:34:06.892Z,354.38
2018-09-10T07:35:06.879Z,360.00
2018-09-10T07:36:06.875Z,354.38
2018-09-10T07:37:06.862Z,360.00
2018-09-10T07:38:06.840Z,354.38
2018-09-10T07:39:06.873Z,360.00
2018-09-10T07:40:06.820Z,360.00
2018-09-10T07:41:06.809Z,365.62
2018-09-10T07:42:06.834Z,371.25
2018-09-10T07:43:06.783Z,371.25
2018-09-10T07:44:06.851Z,376.88
2018-09-10T07:45:06.812Z,382.50
2018-09-10T07:46:06.763Z,388.12
2018-09-10T07:47:06.738Z,399.38
2018-09-10T07:48:06.783Z,416.25
2018-09-10T07:49:06.720Z,416.25
2018-09-10T07:50:06.706Z,438.75
2018-09-10T07:51:06.728Z,438.75
2018-09-10T07:52:06.684Z,433.12
2018-09-10T07:53:06.705Z,421.88
2018-09-10T07:54:06.686Z,416.25
2018-09-10T07:55:06.649Z,427.50
2018-09-10T07:56:06.648Z,421.88
2018-09-10T07:57:06.661Z,421.88
2018-09-10T07:58:06.624Z,410.62
2018-09-10T07:59:06.611Z,410.62
2018-09-10T08:00:06.619Z,405.00
2018-09-10T08:01:06.587Z,393.75
2018-09-10T08:02:06.573Z,382.50
2018-09-10T08:03:06.735Z,360.00
2018-09-10T08:04:06.556Z,354.38
2018-09-10T08:05:06.545Z,348.75
2018-09-10T08:06:06.556Z,348.75
2018-09-10T08:07:06.521Z,348.75
2018-09-10T08:08:06.509Z,354.38
2018-09-10T08:09:06.590Z,376.88
2018-09-10T08:10:06.489Z,376.88
2018-09-10T08:11:06.482Z,388.12
2018-09-10T08:12:06.495Z,388.12
2018-09-10T08:13:06.454Z,393.75
2018-09-10T08:14:06.443Z,399.38
2018-09-10T08:15:06.474Z,393.75
2018-09-10T08:16:06.419Z,421.88
2018-09-10T08:17:06.412Z,427.50
2018-09-10T08:18:06.426Z,427.50
2018-09-10T08:19:06.396Z,427.50
2018-09-10T08:20:06.405Z,433.12
2018-09-10T08:21:06.460Z,455.62
2018-09-10T08:22:06.360Z,461.25
2018-09-10T08:23:06.345Z,466.88
2018-09-10T08:24:06.410Z,489.38
2018-09-10T08:25:14.407Z,495.00
2018-09-10T08:26:15.358Z,461.25
2018-09-10T08:27:06.298Z,444.38
2018-09-10T08:28:06.290Z,433.12
2018-09-10T08:29:14.091Z,438.75
2018-09-10T08:30:14.201Z,427.50
2018-09-10T08:31:14.116Z,405.00
2018-09-10T08:32:15.508Z,382.50
2018-09-10T08:33:14.113Z,376.88
2018-09-10T08:34:14.266Z,371.25
2018-09-10T08:35:06.212Z,382.50
2018-09-10T08:36:06.202Z,388.12
2018-09-10T08:37:06.189Z,410.62
2018-09-10T08:38:06.217Z,427.50
2018-09-10T08:39:06.171Z,438.75
2018-09-10T08:40:06.175Z,416.25
2018-09-10T08:41:06.154Z,438.75
2018-09-10T08:42:06.135Z,438.75
2018-09-10T08:43:06.134Z,444.38
2018-09-10T08:44:06.143Z,427.50
2018-09-10T08:45:06.108Z,427.50
2018-09-10T08:46:06.097Z,444.38
2018-09-10T08:47:06.088Z,461.25
2018-09-10T08:48:06.084Z,438.75
2018-09-10T08:49:06.082Z,466.88
2018-09-10T08:50:06.083Z,438.75
2018-09-10T08:51:06.035Z,450.00
2018-09-10T08:52:06.038Z,416.25
2018-09-10T08:53:06.018Z,421.88
2018-09-10T08:54:06.098Z,438.75
2018-09-10T08:55:06.187Z,472.50
2018-09-10T08:56:06.338Z,472.50
2018-09-10T08:57:05.973Z,472.50
2018-09-10T08:58:05.979Z,483.75
2018-09-10T08:59:05.948Z,478.12
2018-09-10T09:00:06.001Z,489.38
2018-09-10T09:01:05.954Z,495.00
2018-09-10T09:02:05.965Z,478.12
2018-09-10T09:03:05.907Z,466.88
2018-09-10T09:04:05.896Z,489.38
2018-09-10T09:05:05.887Z,478.12
2018-09-10T09:06:05.992Z,495.00
2018-09-10T09:07:05.873Z,489.38
2018-09-10T09:08:05.980Z,495.00
2018-09-10T09:09:05.846Z,495.00
2018-09-10T09:10:05.834Z,495.00
2018-09-10T09:11:05.823Z,500.62
2018-09-10T09:12:05.812Z,511.88
2018-09-10T09:13:05.815Z,523.12
2018-09-10T09:14:05.831Z,528.75
2018-09-10T09:15:05.818Z,528.75
2018-09-10T09:16:05.771Z,523.12
2018-09-10T09:17:05.762Z,506.25
2018-09-10T09:18:05.748Z,511.88
2018-09-10T09:19:05.758Z,523.12
2018-09-10T09:20:05.766Z,540.00
2018-09-10T09:21:05.764Z,545.62
2018-09-10T09:22:05.706Z,562.50
2018-09-10T09:23:05.748Z,585.00
2018-09-10T09:24:05.682Z,596.25
2018-09-10T09:25:05.693Z,590.62
2018-09-10T09:26:05.703Z,585.00
2018-09-10T09:27:05.649Z,585.00
2018-09-10T09:28:05.638Z,573.75
2018-09-10T09:29:05.629Z,568.12
2018-09-10T09:30:05.679Z,556.88
2018-09-10T09:31:05.627Z,534.38
2018-09-10T09:32:05.642Z,523.12
2018-09-10T09:33:05.584Z,495.00
2018-09-10T09:34:05.582Z,466.88
2018-09-10T09:35:05.563Z,438.75
2018-09-10T09:36:05.570Z,438.75
2018-09-10T09:37:05.585Z,416.25
2018-09-10T09:38:05.582Z,405.00
2018-09-10T09:39:05.519Z,410.62
2018-09-10T09:40:05.510Z,416.25
2018-09-10T09:41:05.513Z,416.25
2018-09-10T09:42:05.493Z,421.88
2018-09-10T09:43:05.499Z,427.50
2018-09-10T09:44:05.514Z,433.12
2018-09-10T09:45:05.460Z,438.75
2018-09-10T09:46:05.445Z,444.38
2018-09-10T09:47:05.443Z,461.25
2018-09-10T09:48:05.428Z,461.25
2018-09-10T09:49:05.445Z,455.62
2018-09-10T09:50:05.462Z,450.00
2018-09-10T09:51:05.432Z,438.75
2018-09-10T09:52:05.383Z,427.50
2018-09-10T09:53:05.371Z,416.25
2018-09-10T09:54:05.365Z,416.25
2018-09-10T09:55:05.354Z,405.00
2018-09-10T09:56:05.390Z,388.12
2018-09-10T09:57:05.332Z,399.38
2018-09-10T09:58:05.325Z,410.62
2018-09-10T09:59:05.311Z,416.25
2018-09-10T10:00:05.315Z,433.12
2018-09-10T10:01:05.288Z,438.75
2018-09-10T10:02:05.316Z,438.75
2018-09-10T10:03:05.301Z,438.75
2018-09-10T10:04:05.279Z,433.12
2018-09-10T10:05:05.248Z,438.75
2018-09-10T10:06:05.247Z,438.75
2018-09-10T10:07:05.225Z,438.75
2018-09-10T10:08:05.267Z,444.38
2018-09-10T10:09:05.209Z,438.75
2018-09-10T10:10:05.204Z,438.75
2018-09-10T10:11:05.236Z,438.75
2018-09-10T10:12:05.207Z,433.12
2018-09-10T10:13:05.163Z,433.12
2018-09-10T10:14:05.220Z,433.12
2018-09-10T10:15:05.140Z,433.12
2018-09-10T10:16:05.134Z,444.38
2018-09-10T10:17:05.119Z,455.62
2018-09-10T10:18:05.113Z,455.62
2018-09-10T10:19:05.104Z,461.25
2018-09-10T10:20:05.138Z,472.50
2018-09-10T10:21:05.096Z,483.75
2018-09-10T10:22:05.184Z,495.00
2018-09-10T10:23:05.055Z,500.62
2018-09-10T10:24:05.051Z,511.88
2018-09-10T10:25:05.036Z,534.38
2018-09-10T10:26:05.073Z,540.00
2018-09-10T10:27:05.022Z,523.12
2018-09-10T10:28:05.037Z,483.75
2018-09-10T10:29:04.995Z,466.88
2018-09-10T10:30:04.981Z,472.50
2018-09-10T10:31:04.973Z,461.25
2018-09-10T10:32:04.994Z,455.62
2018-09-10T10:33:04.956Z,450.00
2018-09-10T10:34:04.960Z,450.00
2018-09-10T10:35:04.925Z,455.62
2018-09-10T10:36:04.918Z,472.50
2018-09-10T10:37:04.905Z,483.75
2018-09-10T10:38:04.943Z,489.38
2018-09-10T10:39:04.892Z,500.62
2018-09-10T10:40:04.880Z,511.88
2018-09-10T10:41:04.869Z,500.62
2018-09-10T10:42:04.869Z,495.00
2018-09-10T10:43:04.845Z,500.62
2018-09-10T10:44:04.875Z,511.88
2018-09-10T10:45:04.821Z,511.88
2018-09-10T10:46:04.816Z,511.88
2018-09-10T10:47:04.795Z,517.50
2018-09-10T10:48:04.787Z,545.62
2018-09-10T10:49:04.776Z,556.88
2018-09-10T10:50:04.797Z,551.25
2018-09-10T10:51:04.749Z,545.62
2018-09-10T10:52:04.767Z,540.00
2018-09-10T10:53:04.726Z,540.00
2018-09-10T10:54:04.717Z,540.00
2018-09-10T10:55:04.710Z,545.62
2018-09-10T10:56:04.723Z,540.00
2018-09-10T10:57:04.685Z,534.38
2018-09-10T10:58:04.688Z,534.38
2018-09-10T10:59:04.662Z,534.38
2018-09-10T11:00:04.650Z,545.62
2018-09-10T11:01:04.638Z,556.88
2018-09-10T11:02:04.667Z,568.12
2018-09-10T11:03:04.623Z,590.62
2018-09-10T11:04:04.629Z,618.75
2018-09-10T11:05:04.601Z,635.62
2018-09-10T11:06:04.586Z,658.12
2018-09-10T11:07:04.571Z,669.38
2018-09-10T11:08:04.595Z,691.88
2018-09-10T11:09:04.551Z,714.38
2018-09-10T11:10:04.544Z,725.62
2018-09-10T11:11:04.529Z,781.88
2018-09-10T11:12:04.522Z,810.00
2018-09-10T11:13:04.506Z,793.12
2018-09-10T11:14:04.549Z,821.25
2018-09-10T11:15:04.496Z,855.00
2018-09-10T11:16:04.503Z,821.25
2018-09-10T11:17:04.466Z,916.88
2018-09-10T11:18:04.459Z,939.38
2018-09-10T11:19:04.446Z,939.38
2018-09-10T11:20:04.491Z,956.25
2018-09-10T11:21:04.425Z,956.25
2018-09-10T11:22:04.431Z,866.25
2018-09-10T11:23:04.402Z,883.12
2018-09-10T11:24:04.394Z,866.25
2018-09-10T11:25:04.379Z,855.00
2018-09-10T11:26:04.411Z,843.75
2018-09-10T11:27:04.358Z,860.62
2018-09-10T11:28:04.362Z,928.12
2018-09-10T11:29:04.338Z,922.50
2018-09-10T11:30:04.331Z,1023.75
2018-09-10T11:31:04.318Z,1091.25
2018-09-10T11:32:04.342Z,911.25
2018-09-10T11:33:04.298Z,933.75
2018-09-10T11:34:04.300Z,995.62
2018-09-10T11:35:04.276Z,1080.00
2018-09-10T11:36:04.261Z,1108.12
2018-09-10T11:37:04.253Z,1085.62
2018-09-10T11:38:04.294Z,950.62
2018-09-10T11:39:04.232Z,1012.50
2018-09-10T11:40:04.236Z,1012.50
2018-09-10T11:41:04.221Z,905.62
2018-09-10T11:42:04.204Z,871.88
2018-09-10T11:43:04.192Z,916.88
2018-09-10T11:44:04.211Z,1018.12
2018-09-10T11:45:04.169Z,1029.38
2018-09-10T11:46:04.166Z,1068.75
2018-09-10T11:47:04.154Z,1012.50
2018-09-10T11:48:04.137Z,922.50
2018-09-10T11:49:04.124Z,950.62
2018-09-10T11:50:04.156Z,967.50
2018-09-10T11:51:04.104Z,928.12
2018-09-10T11:52:04.103Z,967.50
2018-09-10T11:53:04.086Z,1040.62
2018-09-10T11:54:04.072Z,1136.25
2018-09-10T11:55:04.058Z,1108.12
2018-09-10T11:56:04.084Z,1074.38
2018-09-10T11:57:04.038Z,1102.50
2018-09-10T11:58:04.041Z,1400.62
2018-09-10T11:59:04.015Z,1113.75
2018-09-10T12:00:04.006Z,1018.12
2018-09-10T12:01:04.000Z,984.38
2018-09-10T12:02:04.078Z,945.00
2018-09-10T12:03:04.005Z,945.00
2018-09-10T12:04:03.994Z,1029.38
2018-09-10T12:05:03.954Z,1113.75
2018-09-10T12:06:03.943Z,1254.38
2018-09-10T12:07:03.931Z,1338.75
2018-09-10T12:08:03.952Z,1361.25
2018-09-10T12:09:03.919Z,1395.00
2018-09-10T12:10:03.913Z,1254.38
2018-09-10T12:11:03.891Z,1299.38
2018-09-10T12:12:03.885Z,1170.00
2018-09-10T12:13:03.883Z,1125.00
2018-09-10T12:14:03.899Z,1051.88
2018-09-10T12:15:03.848Z,1006.88
2018-09-10T12:16:03.844Z,1119.38
2018-09-10T12:17:03.844Z,1001.25
2018-09-10T12:18:03.940Z,1040.62
2018-09-10T12:19:03.813Z,1113.75
2018-09-10T12:20:03.854Z,1215.00
2018-09-10T12:21:03.785Z,1293.75
2018-09-10T12:22:03.777Z,1209.38
2018-09-10T12:23:03.770Z,1209.38
2018-09-10T12:24:03.773Z,1153.12
2018-09-10T12:25:03.750Z,1136.25
2018-09-10T12:26:03.770Z,1057.50
2018-09-10T12:27:03.724Z,1074.38
2018-09-10T12:28:03.714Z,1147.50
2018-09-10T12:29:03.744Z,1220.62
2018-09-10T12:30:03.692Z,1350.00
2018-09-10T12:31:03.692Z,1125.00
2018-09-10T12:32:03.709Z,1164.38
2018-09-10T12:33:03.684Z,1361.25
2018-09-10T12:34:03.655Z,1648.12
2018-09-10T12:35:03.674Z,1620.00
2018-09-10T12:36:03.636Z,1558.12
2018-09-10T12:37:03.625Z,1451.25
2018-09-10T12:38:03.643Z,1434.38
2018-09-10T12:39:03.604Z,1468.12
2018-09-10T12:40:03.596Z,1366.88
2018-09-10T12:41:03.590Z,1451.25
2018-09-10T12:42:03.607Z,1327.50
2018-09-10T12:43:03.573Z,1293.75
2018-09-10T12:44:03.579Z,1462.50
2018-09-10T12:45:03.538Z,1490.62
2018-09-10T12:46:03.526Z,1535.62
2018-09-10T12:47:03.528Z,1513.12